createdAt,value
2019-02-04T00:00:56.009Z,8.70
2019-02-04T00:06:01.339Z,9.53
2019-02-04T00:11:06.980Z,7.92
2019-02-04T00:16:12.322Z,7.55
2019-02-04T00:21:17.798Z,6.85
2019-02-04T00:26:23.061Z,5.75
2019-02-04T00:31:28.394Z,5.35
2019-02-04T00:36:33.632Z,5.30
2019-02-04T00:41:38.907Z,4.75
2019-02-04T00:46:51.928Z,4.87
2019-02-04T00:51:51.038Z,5.87
2019-02-04T00:56:56.307Z,5.05
2019-02-04T01:02:01.543Z,5.58
2019-02-04T01:07:08.490Z,5.60
2019-02-04T01:12:14.824Z,4.55
2019-02-04T01:17:20.060Z,6.33
2019-02-04T01:22:25.319Z,6.97
2019-02-04T01:27:30.585Z,5.55
2019-02-04T01:32:35.818Z,4.93
2019-02-04T01:37:41.049Z,5.58
2019-02-04T01:42:46.294Z,6.07
2019-02-04T01:47:51.548Z,5.33
2019-02-04T01:52:57.229Z,6.23
2019-02-04T01:58:02.498Z,7.63
2019-02-04T02:03:07.820Z,6.28
2019-02-04T02:08:13.097Z,6.23
2019-02-04T02:13:18.364Z,4.67
2019-02-04T02:18:23.614Z,3.55
2019-02-04T02:23:28.888Z,3.33
2019-02-04T02:28:34.156Z,2.80
2019-02-04T02:33:39.477Z,2.20
2019-02-04T02:38:45.059Z,2.85
2019-02-04T02:43:50.326Z,2.90
2019-02-04T02:48:55.585Z,1.90
2019-02-04T02:54:00.939Z,1.70
2019-02-04T02:59:06.347Z,0.88
2019-02-04T03:04:11.787Z,2.02
2019-02-04T03:09:17.038Z,2.50
2019-02-04T03:14:22.286Z,2.72
2019-02-04T03:19:27.559Z,3.07
2019-02-04T03:24:33.144Z,1.83
2019-02-04T03:29:38.402Z,2.90
2019-02-04T03:34:43.663Z,2.43
2019-02-04T03:39:48.947Z,3.25
2019-02-04T03:44:54.224Z,3.10
2019-02-04T03:50:00.812Z,3.35
2019-02-04T03:55:08.395Z,3.02
2019-02-04T04:00:28.622Z,2.35
2019-02-04T04:05:33.958Z,3.60
2019-02-04T04:10:40.284Z,3.30
2019-02-04T04:15:45.837Z,4.20
2019-02-04T04:20:51.168Z,4.00
2019-02-04T04:25:56.444Z,3.77
2019-02-04T04:31:01.714Z,4.70
2019-02-04T04:36:06.956Z,4.60
2019-02-04T04:41:12.232Z,4.47
2019-02-04T04:46:17.495Z,4.55
2019-02-04T04:51:23.820Z,3.93
2019-02-04T04:56:29.437Z,4.62
2019-02-04T05:01:34.979Z,5.10
2019-02-04T05:06:40.298Z,5.65
2019-02-04T05:11:45.729Z,5.10
2019-02-04T05:16:51.275Z,6.05
2019-02-04T05:21:56.515Z,5.45
2019-02-04T05:27:02.166Z,5.62
2019-02-04T05:32:07.533Z,6.42
2019-02-04T05:37:13.177Z,4.67
2019-02-04T05:42:18.478Z,5.30
2019-02-04T05:47:23.817Z,5.50
2019-02-04T05:52:29.078Z,6.07
2019-02-04T05:57:34.346Z,5.33
2019-02-04T06:02:39.594Z,6.97
2019-02-04T06:07:44.836Z,6.12
2019-02-04T06:12:50.090Z,6.97
2019-02-04T06:17:55.356Z,5.47
2019-02-04T06:23:00.593Z,7.50
2019-02-04T06:28:05.871Z,6.30
2019-02-04T06:33:11.127Z,6.42
2019-02-04T06:38:16.398Z,7.17
2019-02-04T06:43:21.642Z,8.40
2019-02-04T06:48:27.206Z,15.73
2019-02-04T06:53:32.476Z,7.03
2019-02-04T06:58:37.738Z,8.10
2019-02-04T07:03:43.043Z,8.80
2019-02-04T07:08:49.385Z,9.07
2019-02-04T07:13:54.632Z,18.85
2019-02-04T07:18:59.895Z,31.68
2019-02-04T07:24:05.285Z,26.37
2019-02-04T07:29:10.547Z,17.20
2019-02-04T07:34:15.809Z,14.38
2019-02-04T07:39:21.091Z,16.67
2019-02-04T07:44:26.350Z,12.00
2019-02-04T07:49:35.173Z,14.47
2019-02-04T07:54:38.508Z,11.20
2019-02-04T07:59:43.780Z,10.68
2019-02-04T08:04:49.098Z,15.08
2019-02-04T08:09:54.857Z,20.50
2019-02-04T08:15:00.196Z,14.25
2019-02-04T08:20:07.290Z,17.80
2019-02-04T08:25:17.129Z,9.60
2019-02-04T08:30:28.449Z,7.22
2019-02-04T08:35:33.739Z,8.25
2019-02-04T08:40:38.994Z,8.65
2019-02-04T08:45:45.494Z,7.70
2019-02-04T08:50:50.806Z,9.35
2019-02-04T08:55:56.529Z,13.33
2019-02-04T09:01:01.796Z,18.02
2019-02-04T09:06:07.363Z,18.33
2019-02-04T09:11:12.706Z,21.33
2019-02-04T09:16:17.963Z,14.30
2019-02-04T09:21:23.218Z,8.63
2019-02-04T09:26:28.468Z,8.98
2019-02-04T09:31:34.023Z,9.23
2019-02-04T09:36:39.296Z,9.87
2019-02-04T09:41:44.562Z,10.10
2019-02-04T09:46:49.811Z,11.10
2019-02-04T09:51:55.064Z,12.55
2019-02-04T09:57:00.315Z,11.40
2019-02-04T10:02:05.799Z,11.80
2019-02-04T10:07:11.362Z,16.32
2019-02-04T10:12:16.635Z,14.95
2019-02-04T10:17:21.964Z,9.33
2019-02-04T10:22:27.291Z,13.40
2019-02-04T10:27:35.449Z,17.30
2019-02-04T10:32:39.503Z,13.05
2019-02-04T10:37:45.344Z,11.97
2019-02-04T10:42:50.657Z,12.20
2019-02-04T10:47:55.911Z,14.40
2019-02-04T10:53:01.547Z,13.45
2019-02-04T10:58:10.335Z,21.10
2019-02-04T11:03:15.660Z,12.53
2019-02-04T11:08:20.893Z,12.77
2019-02-04T11:13:26.191Z,12.10
2019-02-04T11:18:31.567Z,12.33
2019-02-04T11:23:36.816Z,12.10
2019-02-04T11:28:42.226Z,16.87
2019-02-04T11:33:47.636Z,12.00
2019-02-04T11:38:53.017Z,13.00
2019-02-04T11:43:58.272Z,14.03
2019-02-04T11:49:03.495Z,13.50
2019-02-04T11:54:08.758Z,15.15
2019-02-04T11:59:14.029Z,27.27
2019-02-04T12:04:19.294Z,18.57
2019-02-04T12:09:24.779Z,18.47
2019-02-04T12:14:30.312Z,20.57
2019-02-04T12:19:35.561Z,19.93
2019-02-04T12:24:40.842Z,21.17
2019-02-04T12:29:46.089Z,39.77
2019-02-04T12:34:51.360Z,14.23
2019-02-04T12:39:56.630Z,14.78
2019-02-04T12:45:01.864Z,19.40
2019-02-04T12:50:10.425Z,13.07
2019-02-04T12:55:21.752Z,15.10
2019-02-04T13:00:30.530Z,13.33
2019-02-04T13:05:47.283Z,14.80
2019-02-04T13:10:52.523Z,22.77
2019-02-04T13:15:57.794Z,5.60
2019-02-04T13:21:03.351Z,8.00
2019-02-04T13:26:08.590Z,16.37
2019-02-04T13:31:13.864Z,20.13
2019-02-04T13:36:19.209Z,10.63
2019-02-04T13:41:24.483Z,12.05
2019-02-04T13:46:29.778Z,9.13
2019-02-04T13:51:35.107Z,10.73
2019-02-04T13:56:40.398Z,13.47
2019-02-04T14:01:45.662Z,18.60
2019-02-04T14:06:52.027Z,34.33
2019-02-04T14:11:57.297Z,26.63
2019-02-04T14:17:02.631Z,17.50
2019-02-04T14:22:09.609Z,17.03
2019-02-04T14:27:14.690Z,13.00
2019-02-04T14:32:19.942Z,13.20
2019-02-04T14:37:26.136Z,12.87
2019-02-04T14:42:31.376Z,11.57
2019-02-04T14:47:38.189Z,13.30
2019-02-04T14:52:52.795Z,12.33
2019-02-04T14:58:14.009Z,16.33
2019-02-04T15:03:34.729Z,27.17
2019-02-04T15:08:58.362Z,34.03
2019-02-04T15:14:15.901Z,19.57
2019-02-04T15:19:25.465Z,13.30
2019-02-04T15:24:40.013Z,11.60
2019-02-04T15:29:48.556Z,12.90
2019-02-04T15:35:08.944Z,26.17
2019-02-04T15:40:23.666Z,48.33
2019-02-04T15:45:33.154Z,17.67
2019-02-04T15:50:41.687Z,29.27
2019-02-04T15:55:46.964Z,18.17
2019-02-04T16:00:52.213Z,17.37
2019-02-04T16:05:57.474Z,17.37
2019-02-04T16:11:02.974Z,27.73
2019-02-04T16:16:08.250Z,14.95
2019-02-04T16:21:13.515Z,15.88
2019-02-04T16:26:19.170Z,17.45
2019-02-04T16:31:24.472Z,16.15
2019-02-04T16:36:30.041Z,16.95
2019-02-04T16:41:35.375Z,15.75
2019-02-04T16:46:40.728Z,16.05
2019-02-04T16:51:46.092Z,17.40
2019-02-04T16:56:51.347Z,17.15
2019-02-04T17:01:56.958Z,15.13
2019-02-04T17:07:02.239Z,13.90
2019-02-04T17:12:07.602Z,13.73
2019-02-04T17:17:13.129Z,14.28
2019-02-04T17:22:18.467Z,13.22
2019-02-04T17:27:23.751Z,13.05
2019-02-04T17:32:29.052Z,14.30
2019-02-04T17:37:34.604Z,13.78
2019-02-04T17:42:39.857Z,18.97
2019-02-04T17:47:46.350Z,22.07
2019-02-04T17:52:51.911Z,20.70
2019-02-04T17:57:57.202Z,23.47
2019-02-04T18:03:02.642Z,25.80
2019-02-04T18:08:08.063Z,26.25
2019-02-04T18:13:13.350Z,25.23
2019-02-04T18:18:18.691Z,21.85
2019-02-04T18:23:24.446Z,20.23
2019-02-04T18:28:29.721Z,27.13
2019-02-04T18:33:34.995Z,24.90
2019-02-04T18:38:40.241Z,25.25
2019-02-04T18:43:45.547Z,24.67
2019-02-04T18:48:50.999Z,26.25
2019-02-04T18:53:58.102Z,21.20
2019-02-04T18:59:03.445Z,25.55
2019-02-04T19:04:08.708Z,24.50
2019-02-04T19:09:13.971Z,28.90
2019-02-04T19:14:19.317Z,25.12
2019-02-04T19:19:25.076Z,27.87
2019-02-04T19:24:30.669Z,23.60
2019-02-04T19:29:35.908Z,24.57
2019-02-04T19:34:41.181Z,32.35
2019-02-04T19:39:46.480Z,24.95
2019-02-04T19:44:51.816Z,23.42
2019-02-04T19:49:57.054Z,23.95
2019-02-04T19:55:02.602Z,29.82
2019-02-04T20:00:14.137Z,26.57
2019-02-04T20:05:24.868Z,27.77
2019-02-04T20:10:32.295Z,27.85
2019-02-04T20:15:37.637Z,25.55
2019-02-04T20:20:42.919Z,22.73
2019-02-04T20:25:48.177Z,22.73
2019-02-04T20:30:53.492Z,27.85
2019-02-04T20:35:58.963Z,30.37
2019-02-04T20:41:04.743Z,33.25
2019-02-04T20:46:10.077Z,23.80
2019-02-04T20:51:15.365Z,23.83
2019-02-04T20:56:33.929Z,30.10
2019-02-04T21:01:40.477Z,27.30
2019-02-04T21:06:55.793Z,25.65
2019-02-04T21:11:52.671Z,26.52
2019-02-04T21:16:57.942Z,20.50
2019-02-04T21:22:03.208Z,18.83
2019-02-04T21:27:08.474Z,18.35
2019-02-04T21:32:13.755Z,18.30
2019-02-04T21:37:19.322Z,13.83
2019-02-04T21:42:24.582Z,15.03
2019-02-04T21:47:29.880Z,14.87
2019-02-04T21:52:35.141Z,15.18
2019-02-04T21:57:40.419Z,16.32
2019-02-04T22:02:45.657Z,17.07
2019-02-04T22:07:50.953Z,19.25
2019-02-04T22:12:56.291Z,18.23
2019-02-04T22:18:01.564Z,20.47
2019-02-04T22:23:06.830Z,19.98
2019-02-04T22:28:12.072Z,20.55
2019-02-04T22:33:17.343Z,18.23
2019-02-04T22:38:22.891Z,18.35
2019-02-04T22:43:28.154Z,18.27
2019-02-04T22:48:33.412Z,19.33
2019-02-04T22:53:38.700Z,22.22
2019-02-04T22:58:44.029Z,13.67
2019-02-04T23:03:49.299Z,13.33
2019-02-04T23:08:54.563Z,13.73
2019-02-04T23:13:59.797Z,12.37
2019-02-04T23:19:05.262Z,11.05
2019-02-04T23:24:10.501Z,10.15
2019-02-04T23:29:15.748Z,11.15
2019-02-04T23:34:21.073Z,13.00
2019-02-04T23:39:26.328Z,14.50
2019-02-04T23:44:31.601Z,13.32
2019-02-04T23:49:36.864Z,13.80
2019-02-04T23:54:42.127Z,13.93
2019-02-04T23:59:47.700Z,14.30
